createdAt,value
2022-12-12T00:00:11.181Z,84.17
2022-12-12T00:01:11.151Z,84.27
2022-12-12T00:02:11.275Z,84.27
2022-12-12T00:03:11.272Z,84.27
2022-12-12T00:04:11.129Z,84.27
2022-12-12T00:05:11.528Z,84.27
2022-12-12T00:06:11.104Z,84.17
2022-12-12T00:07:11.122Z,84.27
2022-12-12T00:08:11.122Z,84.48
2022-12-12T00:09:11.065Z,84.48
2022-12-12T00:10:11.074Z,84.48
2022-12-12T00:11:11.056Z,84.48
2022-12-12T00:12:11.065Z,84.27
2022-12-12T00:13:11.043Z,84.27
2022-12-12T00:14:11.012Z,84.48
2022-12-12T00:15:11.356Z,84.58
2022-12-12T00:16:11.110Z,84.48
2022-12-12T00:17:11.013Z,84.17
2022-12-12T00:18:10.973Z,84.17
2022-12-12T00:19:10.994Z,84.06
2022-12-12T00:20:10.954Z,84.27
2022-12-12T00:21:10.951Z,84.38
2022-12-12T00:22:10.961Z,84.58
2022-12-12T00:23:11.004Z,84.79
2022-12-12T00:24:10.913Z,84.89
2022-12-12T00:25:11.325Z,85.00
2022-12-12T00:26:10.913Z,85.11
2022-12-12T00:27:10.883Z,84.89
2022-12-12T00:28:10.895Z,84.89
2022-12-12T00:29:10.893Z,84.48
2022-12-12T00:30:10.865Z,84.27
2022-12-12T00:31:10.871Z,84.38
2022-12-12T00:32:10.834Z,84.58
2022-12-12T00:33:10.833Z,84.58
2022-12-12T00:34:10.833Z,84.58
2022-12-12T00:35:11.227Z,84.69
2022-12-12T00:36:10.804Z,84.48
2022-12-12T00:37:10.786Z,84.38
2022-12-12T00:38:10.774Z,84.27
2022-12-12T00:39:16.689Z,84.27
2022-12-12T00:40:11.757Z,84.27
2022-12-12T00:41:10.750Z,84.17
2022-12-12T00:42:10.763Z,83.85
2022-12-12T00:43:10.725Z,83.75
2022-12-12T00:44:10.742Z,83.44
2022-12-12T00:45:11.122Z,83.23
2022-12-12T00:46:10.782Z,83.01
2022-12-12T00:47:10.702Z,82.81
2022-12-12T00:48:10.677Z,82.81
2022-12-12T00:49:10.656Z,83.01
2022-12-12T00:50:10.678Z,83.33
2022-12-12T00:51:10.635Z,83.64
2022-12-12T00:52:10.625Z,83.75
2022-12-12T00:53:10.631Z,83.64
2022-12-12T00:54:10.629Z,83.75
2022-12-12T00:55:11.015Z,83.85
2022-12-12T00:56:10.586Z,84.06
2022-12-12T00:57:10.589Z,84.17
2022-12-12T00:58:10.575Z,83.95
2022-12-12T00:59:10.544Z,83.85
2022-12-12T01:00:10.564Z,83.95
2022-12-12T01:01:10.542Z,84.06
2022-12-12T01:02:10.567Z,84.17
2022-12-12T01:03:10.580Z,84.27
2022-12-12T01:04:10.516Z,84.27
2022-12-12T01:05:10.852Z,84.27
2022-12-12T01:06:10.498Z,84.48
2022-12-12T01:07:10.479Z,84.48
2022-12-12T01:08:10.523Z,84.48
2022-12-12T01:09:10.467Z,84.48
2022-12-12T01:10:10.446Z,83.54
2022-12-12T01:11:10.435Z,83.75
2022-12-12T01:12:10.436Z,84.38
2022-12-12T01:13:10.423Z,84.69
2022-12-12T01:14:10.406Z,84.79
2022-12-12T01:15:10.822Z,84.89
2022-12-12T01:16:10.428Z,84.79
2022-12-12T01:17:10.374Z,84.69
2022-12-12T01:18:10.376Z,84.69
2022-12-12T01:19:10.353Z,84.69
2022-12-12T01:20:10.361Z,84.58
2022-12-12T01:21:10.337Z,84.79
2022-12-12T01:22:10.355Z,84.58
2022-12-12T01:23:10.304Z,84.27
2022-12-12T01:24:10.298Z,84.48
2022-12-12T01:25:10.675Z,84.69
2022-12-12T01:26:10.282Z,84.48
2022-12-12T01:27:10.273Z,84.06
2022-12-12T01:28:10.275Z,83.85
2022-12-12T01:29:10.245Z,83.64
2022-12-12T01:30:10.242Z,83.75
2022-12-12T01:31:10.366Z,83.75
2022-12-12T01:32:10.225Z,84.06
2022-12-12T01:33:10.223Z,84.27
2022-12-12T01:34:10.195Z,84.17
2022-12-12T01:35:10.829Z,84.17
2022-12-12T01:36:10.185Z,84.06
2022-12-12T01:37:10.155Z,84.06
2022-12-12T01:38:10.160Z,83.95
2022-12-12T01:39:10.155Z,83.75
2022-12-12T01:40:10.133Z,83.58
2022-12-12T01:41:10.128Z,83.58
2022-12-12T01:42:10.135Z,83.37
2022-12-12T01:43:10.097Z,83.06
2022-12-12T01:44:10.096Z,82.84
2022-12-12T01:45:10.193Z,82.64
2022-12-12T01:46:10.132Z,82.64
2022-12-12T01:47:10.083Z,82.43
2022-12-12T01:48:10.055Z,82.43
2022-12-12T01:49:10.042Z,82.43
2022-12-12T01:50:10.040Z,82.01
2022-12-12T01:51:10.016Z,82.12
2022-12-12T01:52:10.026Z,82.12
2022-12-12T01:53:10.006Z,82.12
2022-12-12T01:54:10.014Z,82.32
2022-12-12T01:55:10.193Z,82.32
2022-12-12T01:56:09.976Z,82.43
2022-12-12T01:57:09.976Z,82.32
2022-12-12T01:58:09.956Z,82.36
2022-12-12T01:59:09.946Z,82.46
2022-12-12T02:00:09.957Z,82.36
2022-12-12T02:01:09.948Z,82.46
2022-12-12T02:02:10.003Z,82.67
2022-12-12T02:03:09.886Z,82.99
2022-12-12T02:04:09.890Z,83.20
2022-12-12T02:05:09.999Z,83.40
2022-12-12T02:06:09.879Z,83.72
2022-12-12T02:07:09.846Z,83.83
2022-12-12T02:08:09.879Z,84.03
2022-12-12T02:09:09.845Z,84.14
2022-12-12T02:10:09.837Z,84.24
2022-12-12T02:11:09.847Z,84.45
2022-12-12T02:12:09.798Z,84.59
2022-12-12T02:13:09.813Z,84.70
2022-12-12T02:14:09.788Z,84.80
2022-12-12T02:15:09.934Z,85.01
2022-12-12T02:16:09.845Z,85.22
2022-12-12T02:17:09.775Z,85.43
2022-12-12T02:18:12.646Z,85.58
2022-12-12T02:19:09.738Z,85.78
2022-12-12T02:20:09.746Z,85.99
2022-12-12T02:21:09.716Z,86.10
2022-12-12T02:22:09.703Z,86.10
2022-12-12T02:23:09.704Z,86.20
2022-12-12T02:24:09.688Z,86.31
2022-12-12T02:25:09.942Z,86.20
2022-12-12T02:26:09.658Z,86.31
2022-12-12T02:27:09.658Z,86.66
2022-12-12T02:28:09.707Z,86.77
2022-12-12T02:29:09.646Z,86.87
2022-12-12T02:30:09.624Z,86.87
2022-12-12T02:31:09.665Z,86.98
2022-12-12T02:32:09.599Z,86.87
2022-12-12T02:33:09.607Z,87.08
2022-12-12T02:34:09.577Z,86.98
2022-12-12T02:35:09.706Z,87.08
2022-12-12T02:36:09.556Z,87.08
2022-12-12T02:37:09.567Z,86.98
2022-12-12T02:38:09.536Z,86.87
2022-12-12T02:39:09.512Z,86.87
2022-12-12T02:40:09.523Z,86.98
2022-12-12T02:41:09.521Z,86.98
2022-12-12T02:42:09.474Z,87.01
2022-12-12T02:43:09.482Z,87.12
2022-12-12T02:44:09.465Z,87.01
2022-12-12T02:45:09.581Z,87.01
2022-12-12T02:46:09.423Z,87.01
2022-12-12T02:47:09.432Z,86.91
2022-12-12T02:48:09.421Z,87.01
2022-12-12T02:49:09.407Z,87.23
2022-12-12T02:50:09.412Z,87.33
2022-12-12T02:51:09.419Z,87.58
2022-12-12T02:52:09.383Z,87.58
2022-12-12T02:53:09.373Z,87.47
2022-12-12T02:54:09.362Z,87.47
2022-12-12T02:55:09.366Z,87.47
2022-12-12T02:56:09.346Z,87.68
2022-12-12T02:57:09.324Z,87.99
2022-12-12T02:58:09.334Z,88.10
2022-12-12T02:59:09.334Z,88.21
2022-12-12T03:00:09.286Z,88.31
2022-12-12T03:01:09.326Z,88.42
2022-12-12T03:02:09.350Z,88.42
2022-12-12T03:03:09.253Z,88.31
2022-12-12T03:04:09.244Z,88.31
2022-12-12T03:05:09.253Z,88.46
2022-12-12T03:06:09.251Z,88.98
2022-12-12T03:07:09.234Z,89.50
2022-12-12T03:08:09.330Z,89.82
2022-12-12T03:09:09.230Z,89.92
2022-12-12T03:10:09.193Z,90.13
2022-12-12T03:11:09.174Z,90.13
2022-12-12T03:12:09.182Z,90.03
2022-12-12T03:13:09.163Z,90.03
2022-12-12T03:14:09.160Z,89.92
2022-12-12T03:15:09.143Z,89.82
2022-12-12T03:16:09.188Z,89.72
2022-12-12T03:17:09.132Z,89.72
2022-12-12T03:18:09.103Z,89.72
2022-12-12T03:19:09.103Z,89.72
2022-12-12T03:20:09.093Z,89.61
2022-12-12T03:21:09.084Z,89.50
2022-12-12T03:22:09.053Z,89.40
2022-12-12T03:23:09.082Z,89.54
2022-12-12T03:24:09.056Z,89.65
2022-12-12T03:25:09.049Z,89.65
2022-12-12T03:26:09.034Z,89.54
2022-12-12T03:27:09.015Z,89.54
2022-12-12T03:28:09.014Z,89.65
2022-12-12T03:29:08.992Z,89.65
2022-12-12T03:30:09.002Z,89.44
2022-12-12T03:31:09.039Z,89.54
2022-12-12T03:32:08.983Z,89.75
2022-12-12T03:33:08.951Z,89.97
2022-12-12T03:34:08.945Z,90.28
2022-12-12T03:35:08.944Z,90.38
2022-12-12T03:36:08.953Z,90.38
2022-12-12T03:37:08.923Z,90.38
2022-12-12T03:38:08.894Z,90.22
2022-12-12T03:39:08.904Z,90.22
2022-12-12T03:40:08.899Z,90.32
2022-12-12T03:41:08.892Z,90.32
2022-12-12T03:42:08.853Z,90.22
2022-12-12T03:43:08.854Z,90.11
2022-12-12T03:44:08.843Z,90.00
2022-12-12T03:45:08.843Z,89.79
2022-12-12T03:46:08.896Z,89.69
2022-12-12T03:47:08.805Z,89.69
2022-12-12T03:48:08.804Z,89.79
2022-12-12T03:49:08.803Z,89.90
2022-12-12T03:50:08.794Z,90.11
2022-12-12T03:51:08.774Z,90.11
2022-12-12T03:52:08.782Z,90.11
2022-12-12T03:53:08.754Z,90.15
2022-12-12T03:54:08.835Z,90.25
2022-12-12T03:55:08.733Z,90.25
2022-12-12T03:56:08.713Z,90.15
2022-12-12T03:57:08.722Z,90.15
2022-12-12T03:58:08.722Z,90.15
2022-12-12T03:59:08.715Z,90.36
2022-12-12T04:00:08.676Z,90.57
2022-12-12T04:01:08.789Z,90.78
2022-12-12T04:02:08.709Z,90.78
2022-12-12T04:03:08.655Z,90.67
2022-12-12T04:04:08.643Z,90.57
2022-12-12T04:05:08.632Z,90.47
2022-12-12T04:06:08.603Z,90.57
2022-12-12T04:07:08.632Z,90.67
2022-12-12T04:08:08.695Z,90.78
2022-12-12T04:09:08.581Z,90.89
2022-12-12T04:10:08.584Z,90.89
2022-12-12T04:11:08.573Z,90.99
2022-12-12T04:12:08.563Z,90.99
2022-12-12T04:13:08.554Z,90.99
2022-12-12T04:14:08.523Z,90.89
2022-12-12T04:15:08.553Z,90.89
2022-12-12T04:16:08.530Z,90.89
2022-12-12T04:17:08.523Z,90.74
2022-12-12T04:18:08.483Z,90.64
2022-12-12T04:19:08.496Z,90.74
2022-12-12T04:20:08.519Z,90.84
2022-12-12T04:21:08.473Z,90.74
2022-12-12T04:22:08.452Z,90.74
2022-12-12T04:23:08.433Z,90.64
2022-12-12T04:24:08.432Z,90.64
2022-12-12T04:25:08.442Z,90.64
2022-12-12T04:26:08.409Z,90.64
2022-12-12T04:27:08.435Z,90.64
2022-12-12T04:28:08.396Z,90.53
2022-12-12T04:29:08.392Z,90.53
2022-12-12T04:30:08.374Z,90.53
2022-12-12T04:31:08.383Z,90.42
2022-12-12T04:32:08.412Z,90.32
2022-12-12T04:33:08.373Z,90.32
2022-12-12T04:34:08.319Z,90.32
2022-12-12T04:35:08.322Z,90.32
2022-12-12T04:36:08.322Z,90.32
2022-12-12T04:37:08.292Z,90.32
2022-12-12T04:38:08.284Z,90.32
2022-12-12T04:39:08.273Z,90.42
2022-12-12T04:40:08.253Z,90.42
2022-12-12T04:41:08.263Z,90.64
2022-12-12T04:42:08.263Z,90.64
2022-12-12T04:43:08.261Z,90.59
2022-12-12T04:44:08.214Z,90.49
2022-12-12T04:45:08.241Z,90.49
2022-12-12T04:46:08.238Z,90.49
2022-12-12T04:47:08.192Z,90.49
2022-12-12T04:48:08.174Z,90.49
2022-12-12T04:49:08.183Z,90.38
2022-12-12T04:50:08.152Z,90.38
2022-12-12T04:51:08.163Z,90.28
2022-12-12T04:52:08.160Z,90.28
2022-12-12T04:53:08.923Z,90.28
2022-12-12T04:54:08.123Z,90.28
2022-12-12T04:55:08.120Z,90.28
2022-12-12T04:56:08.103Z,90.28
2022-12-12T04:57:08.103Z,90.28
2022-12-12T04:58:08.073Z,90.17
2022-12-12T04:59:08.100Z,90.17
2022-12-12T05:00:08.084Z,90.07
2022-12-12T05:01:08.075Z,90.07
2022-12-12T05:02:08.078Z,90.17
2022-12-12T05:03:08.052Z,90.17
2022-12-12T05:04:08.024Z,90.17
2022-12-12T05:05:08.055Z,90.17
2022-12-12T05:06:08.010Z,90.17
2022-12-12T05:07:07.982Z,90.13
2022-12-12T05:08:08.949Z,90.13
2022-12-12T05:09:07.974Z,90.13
2022-12-12T05:10:07.973Z,90.13
2022-12-12T05:11:07.943Z,90.03
2022-12-12T05:12:07.939Z,90.03
2022-12-12T05:13:07.942Z,90.03
2022-12-12T05:14:07.913Z,90.03
2022-12-12T05:15:07.903Z,89.92
2022-12-12T05:16:07.929Z,89.92
2022-12-12T05:17:07.882Z,89.82
2022-12-12T05:18:07.891Z,89.61
2022-12-12T05:19:08.227Z,89.50
2022-12-12T05:20:07.866Z,89.40
2022-12-12T05:21:07.842Z,89.40
2022-12-12T05:22:07.822Z,89.29
2022-12-12T05:23:07.861Z,89.29
2022-12-12T05:24:07.812Z,89.40
2022-12-12T05:25:07.813Z,89.29
2022-12-12T05:26:07.822Z,89.19
2022-12-12T05:27:07.793Z,89.19
2022-12-12T05:28:07.780Z,89.09
2022-12-12T05:29:07.981Z,89.09
2022-12-12T05:30:07.755Z,89.09
2022-12-12T05:31:07.832Z,88.98
2022-12-12T05:32:07.754Z,88.87
2022-12-12T05:33:07.733Z,88.87
2022-12-12T05:34:08.391Z,88.94
2022-12-12T05:35:09.222Z,89.09
2022-12-12T05:36:08.154Z,89.04
2022-12-12T05:37:07.861Z,89.09
2022-12-12T05:38:07.844Z,89.15
2022-12-12T05:39:07.653Z,89.25
2022-12-12T05:40:07.642Z,89.25
2022-12-12T05:41:07.672Z,89.25
2022-12-12T05:42:07.743Z,89.25
2022-12-12T05:43:07.622Z,89.25
2022-12-12T05:44:07.974Z,89.15
2022-12-12T05:45:07.803Z,89.25
2022-12-12T05:46:08.733Z,89.25
2022-12-12T05:47:07.733Z,89.36
2022-12-12T05:48:08.778Z,89.36
2022-12-12T05:49:07.563Z,89.47
2022-12-12T05:50:07.971Z,89.47
2022-12-12T05:51:07.555Z,89.47
2022-12-12T05:52:08.133Z,89.36
2022-12-12T05:53:07.525Z,89.36
2022-12-12T05:54:07.564Z,89.36
2022-12-12T05:55:07.505Z,89.36
2022-12-12T05:56:07.512Z,89.36
2022-12-12T05:57:07.540Z,89.47
2022-12-12T05:58:07.484Z,89.57
2022-12-12T05:59:07.484Z,89.67
2022-12-12T06:00:08.227Z,89.67
2022-12-12T06:01:07.443Z,89.78
2022-12-12T06:02:07.485Z,89.78
2022-12-12T06:03:07.409Z,89.78
2022-12-12T06:04:07.443Z,89.78
2022-12-12T06:05:07.405Z,89.88
2022-12-12T06:06:07.402Z,89.88
2022-12-12T06:07:07.382Z,89.78
2022-12-12T06:08:07.432Z,89.67
2022-12-12T06:09:07.362Z,89.57
2022-12-12T06:10:07.334Z,89.57
2022-12-12T06:11:07.344Z,89.42
2022-12-12T06:12:07.336Z,89.22
2022-12-12T06:13:07.324Z,89.32
2022-12-12T06:14:07.312Z,89.22
2022-12-12T06:15:07.333Z,89.00
2022-12-12T06:16:07.407Z,89.00
2022-12-12T06:17:07.273Z,89.11
2022-12-12T06:18:07.254Z,89.22
2022-12-12T06:19:07.252Z,89.22
2022-12-12T06:20:07.254Z,89.22
2022-12-12T06:21:07.224Z,89.11
2022-12-12T06:22:07.263Z,89.11
2022-12-12T06:23:07.214Z,89.22
2022-12-12T06:24:07.182Z,89.11
2022-12-12T06:25:07.203Z,89.00
2022-12-12T06:26:07.180Z,89.00
2022-12-12T06:27:07.184Z,88.90
2022-12-12T06:28:07.163Z,88.69
2022-12-12T06:29:07.154Z,88.59
2022-12-12T06:30:07.164Z,88.48
2022-12-12T06:31:11.456Z,88.27
2022-12-12T06:32:07.111Z,87.96
2022-12-12T06:33:07.133Z,88.06
2022-12-12T06:34:07.103Z,88.06
2022-12-12T06:35:07.104Z,88.06
2022-12-12T06:36:07.092Z,87.96
2022-12-12T06:37:07.058Z,88.17
2022-12-12T06:38:07.063Z,88.37
2022-12-12T06:39:07.074Z,88.37
2022-12-12T06:40:07.074Z,88.48
2022-12-12T06:41:07.013Z,88.48
2022-12-12T06:42:07.033Z,88.48
2022-12-12T06:43:07.018Z,88.48
2022-12-12T06:44:07.007Z,88.37
2022-12-12T06:45:06.981Z,88.69
2022-12-12T06:46:07.006Z,88.79
2022-12-12T06:47:06.983Z,88.69
2022-12-12T06:48:06.944Z,88.69
2022-12-12T06:49:06.962Z,88.48
2022-12-12T06:50:06.947Z,88.27
2022-12-12T06:51:06.914Z,88.37
2022-12-12T06:52:06.923Z,88.48
2022-12-12T06:53:07.010Z,88.37
2022-12-12T06:54:06.913Z,88.37
2022-12-12T06:55:06.895Z,88.06
2022-12-12T06:56:06.864Z,88.06
2022-12-12T06:57:06.865Z,87.96
2022-12-12T06:58:06.844Z,88.17
2022-12-12T06:59:06.832Z,88.27
2022-12-12T07:00:06.842Z,88.37
2022-12-12T07:01:06.840Z,88.59
2022-12-12T07:02:06.823Z,88.59
2022-12-12T07:03:06.799Z,88.69
2022-12-12T07:04:06.876Z,88.69
2022-12-12T07:05:06.783Z,88.90
2022-12-12T07:06:06.761Z,89.11
2022-12-12T07:07:06.781Z,89.32
2022-12-12T07:08:06.766Z,89.32
2022-12-12T07:09:06.721Z,89.38
2022-12-12T07:10:06.751Z,89.17
2022-12-12T07:11:06.712Z,89.17
2022-12-12T07:12:06.697Z,89.17
2022-12-12T07:13:06.682Z,89.07
2022-12-12T07:14:06.692Z,88.75
2022-12-12T07:15:06.683Z,88.86
2022-12-12T07:16:06.698Z,89.07
2022-12-12T07:17:06.653Z,88.96
2022-12-12T07:18:06.662Z,89.07
2022-12-12T07:19:06.650Z,89.17
2022-12-12T07:20:06.637Z,88.96
2022-12-12T07:21:06.614Z,88.96
2022-12-12T07:22:10.092Z,89.07
2022-12-12T07:23:06.583Z,88.96
2022-12-12T07:24:07.222Z,88.86
2022-12-12T07:25:06.591Z,88.65
2022-12-12T07:26:06.573Z,88.65
2022-12-12T07:27:06.565Z,88.65
2022-12-12T07:28:06.533Z,88.75
2022-12-12T07:29:06.537Z,88.65
2022-12-12T07:30:06.531Z,88.23
2022-12-12T07:31:06.581Z,88.34
2022-12-12T07:32:06.542Z,88.29
2022-12-12T07:33:06.484Z,88.40
2022-12-12T07:34:06.487Z,88.40
2022-12-12T07:35:06.476Z,88.40
2022-12-12T07:36:06.627Z,88.19
2022-12-12T07:37:06.446Z,87.98
2022-12-12T07:38:06.476Z,87.88
2022-12-12T07:39:07.138Z,87.88
2022-12-12T07:40:06.500Z,87.98
2022-12-12T07:41:06.489Z,87.77
2022-12-12T07:42:06.434Z,87.88
2022-12-12T07:43:06.399Z,87.88
2022-12-12T07:44:06.406Z,87.66
2022-12-12T07:45:06.410Z,87.77
2022-12-12T07:46:06.424Z,87.66
2022-12-12T07:47:06.443Z,87.56
2022-12-12T07:48:06.364Z,87.56
2022-12-12T07:49:06.339Z,87.56
2022-12-12T07:50:06.347Z,87.77
2022-12-12T07:51:06.329Z,87.66
2022-12-12T07:52:06.363Z,87.66
2022-12-12T07:53:06.289Z,87.56
2022-12-12T07:54:06.309Z,87.56
2022-12-12T07:55:06.307Z,87.25
2022-12-12T07:56:06.302Z,86.93
2022-12-12T07:57:06.279Z,86.52
2022-12-12T07:58:06.269Z,86.41
2022-12-12T07:59:06.242Z,86.41
2022-12-12T08:00:06.261Z,86.52
2022-12-12T08:01:11.152Z,86.62
2022-12-12T08:02:07.253Z,86.52
2022-12-12T08:03:06.191Z,86.62
2022-12-12T08:04:06.211Z,86.62
2022-12-12T08:05:06.215Z,86.52
2022-12-12T08:06:06.177Z,86.20
2022-12-12T08:07:08.602Z,86.31
2022-12-12T08:08:06.207Z,86.37
2022-12-12T08:09:06.167Z,86.20
2022-12-12T08:10:06.140Z,86.10
2022-12-12T08:11:06.112Z,86.06
2022-12-12T08:12:06.108Z,85.96
2022-12-12T08:13:06.091Z,85.96
2022-12-12T08:14:11.205Z,85.85
2022-12-12T08:15:07.083Z,85.74
2022-12-12T08:16:06.121Z,85.74
2022-12-12T08:17:06.072Z,85.74
2022-12-12T08:18:06.040Z,85.74
2022-12-12T08:19:06.059Z,85.85
2022-12-12T08:20:06.049Z,85.64
2022-12-12T08:21:06.046Z,85.71
2022-12-12T08:22:06.019Z,85.71
2022-12-12T08:23:06.032Z,85.71
2022-12-12T08:24:05.994Z,85.81
2022-12-12T08:25:05.969Z,85.60
2022-12-12T08:26:05.959Z,85.29
2022-12-12T08:27:09.552Z,84.97
2022-12-12T08:28:06.948Z,84.97
2022-12-12T08:29:05.940Z,84.34
2022-12-12T08:30:05.964Z,84.14
2022-12-12T08:31:05.954Z,84.24
2022-12-12T08:32:05.926Z,84.66
2022-12-12T08:33:08.213Z,84.87
2022-12-12T08:34:05.889Z,84.87
2022-12-12T08:35:05.859Z,84.87
2022-12-12T08:36:05.892Z,84.66
2022-12-12T08:37:05.858Z,84.41
2022-12-12T08:38:05.859Z,84.31
2022-12-12T08:39:05.861Z,84.20
2022-12-12T08:40:05.840Z,84.31
2022-12-12T08:41:05.816Z,84.20
2022-12-12T08:42:05.799Z,84.10
2022-12-12T08:43:05.789Z,83.95
2022-12-12T08:44:05.811Z,83.95
2022-12-12T08:45:05.759Z,83.64
2022-12-12T08:46:05.867Z,83.64
2022-12-12T08:47:05.803Z,83.44
2022-12-12T08:48:05.740Z,83.33
2022-12-12T08:49:05.748Z,83.23
2022-12-12T08:50:05.747Z,83.44
2022-12-12T08:51:05.760Z,83.54
2022-12-12T08:52:05.700Z,83.54
2022-12-12T08:53:05.705Z,83.29
2022-12-12T08:54:05.710Z,82.98
2022-12-12T08:55:05.650Z,82.98
2022-12-12T08:56:05.651Z,82.98
2022-12-12T08:57:05.660Z,83.08
2022-12-12T08:58:05.632Z,82.87
2022-12-12T08:59:05.768Z,82.77
2022-12-12T09:00:05.644Z,82.77
2022-12-12T09:01:05.628Z,82.56
2022-12-12T09:02:05.720Z,82.46
2022-12-12T09:03:05.614Z,82.35
2022-12-12T09:04:05.573Z,82.35
2022-12-12T09:05:05.579Z,82.10
2022-12-12T09:06:05.570Z,81.69
2022-12-12T09:07:08.678Z,81.90
2022-12-12T09:08:05.588Z,81.69
2022-12-12T09:09:05.531Z,81.90
2022-12-12T09:10:05.538Z,82.00
2022-12-12T09:11:05.511Z,82.00
2022-12-12T09:12:05.514Z,82.10
2022-12-12T09:13:05.527Z,82.00
2022-12-12T09:14:05.488Z,81.79
2022-12-12T09:15:05.469Z,81.79
2022-12-12T09:16:05.526Z,81.48
2022-12-12T09:17:05.430Z,81.59
2022-12-12T09:18:05.421Z,81.48
2022-12-12T09:19:05.420Z,81.34
2022-12-12T09:20:05.423Z,81.34
2022-12-12T09:21:05.412Z,81.55
2022-12-12T09:22:05.410Z,81.23
2022-12-12T09:23:05.370Z,81.13
2022-12-12T09:24:05.364Z,80.82
2022-12-12T09:25:05.360Z,80.61
2022-12-12T09:26:05.340Z,80.82
2022-12-12T09:27:05.352Z,80.71
2022-12-12T09:28:05.335Z,80.71
2022-12-12T09:29:05.324Z,80.51
2022-12-12T09:30:05.320Z,80.40
2022-12-12T09:31:05.346Z,80.40
2022-12-12T09:32:05.281Z,80.40
2022-12-12T09:33:05.301Z,80.36
2022-12-12T09:34:05.280Z,80.26
2022-12-12T09:35:05.252Z,80.16
2022-12-12T09:36:05.373Z,79.94
2022-12-12T09:37:05.241Z,79.84
2022-12-12T09:38:08.221Z,79.94
2022-12-12T09:39:06.250Z,79.63
2022-12-12T09:40:05.212Z,79.53
2022-12-12T09:41:05.239Z,79.80
2022-12-12T09:42:05.181Z,79.60
2022-12-12T09:43:05.891Z,79.49
2022-12-12T09:44:05.169Z,79.28
2022-12-12T09:45:05.832Z,79.08
2022-12-12T09:46:05.162Z,79.08
2022-12-12T09:47:05.231Z,78.77
2022-12-12T09:48:05.159Z,78.45
2022-12-12T09:49:05.094Z,78.63
2022-12-12T09:50:05.102Z,78.63
2022-12-12T09:51:05.071Z,78.63
2022-12-12T09:52:05.082Z,78.31
2022-12-12T09:53:05.059Z,78.20
2022-12-12T09:54:05.062Z,78.10
2022-12-12T09:55:05.062Z,78.20
2022-12-12T09:56:05.051Z,78.20
2022-12-12T09:57:05.032Z,78.10
2022-12-12T09:58:05.040Z,78.31
2022-12-12T09:59:05.003Z,78.17
2022-12-12T10:00:04.991Z,78.07
2022-12-12T10:01:05.126Z,77.96
2022-12-12T10:02:05.093Z,78.17
2022-12-12T10:03:04.962Z,77.55
2022-12-12T10:04:04.952Z,76.92
2022-12-12T10:05:04.935Z,77.09
2022-12-12T10:06:36.095Z,77.09
2022-12-12T10:07:05.944Z,76.78
2022-12-12T10:08:04.951Z,76.37
2022-12-12T10:09:04.895Z,76.37
2022-12-12T10:10:04.893Z,76.26
2022-12-12T10:11:04.903Z,76.16
2022-12-12T10:12:08.069Z,76.16
2022-12-12T10:13:04.873Z,76.16
2022-12-12T10:14:04.851Z,76.37
2022-12-12T10:15:04.834Z,76.23
2022-12-12T10:16:04.939Z,76.12
2022-12-12T10:17:04.833Z,75.92
2022-12-12T10:18:04.812Z,75.81
2022-12-12T10:19:04.812Z,75.71
2022-12-12T10:20:04.794Z,75.81
2022-12-12T10:21:04.773Z,75.78
2022-12-12T10:22:04.774Z,75.46
2022-12-12T10:23:04.762Z,75.57
2022-12-12T10:24:04.783Z,75.46
2022-12-12T10:25:04.753Z,75.15
2022-12-12T10:26:04.722Z,75.05
2022-12-12T10:27:04.705Z,74.95
2022-12-12T10:28:04.723Z,74.84
2022-12-12T10:29:04.683Z,74.84
2022-12-12T10:30:04.711Z,74.74
2022-12-12T10:31:04.673Z,75.09
2022-12-12T10:32:04.687Z,75.40
2022-12-12T10:33:04.653Z,75.60
2022-12-12T10:34:04.643Z,75.71
2022-12-12T10:35:04.786Z,75.92
2022-12-12T10:36:04.623Z,76.02
2022-12-12T10:37:04.604Z,75.81
2022-12-12T10:38:04.630Z,75.81
2022-12-12T10:39:04.614Z,75.81
2022-12-12T10:40:04.595Z,76.12
2022-12-12T10:41:04.562Z,76.02
2022-12-12T10:42:04.570Z,75.92
2022-12-12T10:43:04.560Z,75.81
2022-12-12T10:44:05.601Z,76.02
2022-12-12T10:45:04.563Z,76.16
2022-12-12T10:46:04.670Z,75.85
2022-12-12T10:47:04.543Z,75.74
2022-12-12T10:48:05.504Z,75.85
2022-12-12T10:49:04.514Z,76.37
2022-12-12T10:50:11.480Z,76.78
2022-12-12T10:51:05.516Z,76.68
2022-12-12T10:52:05.534Z,76.68
2022-12-12T10:53:04.454Z,76.33
2022-12-12T10:54:04.674Z,76.23
2022-12-12T10:55:04.462Z,75.92
2022-12-12T10:56:05.147Z,75.81
2022-12-12T10:57:04.477Z,75.71
2022-12-12T10:58:04.594Z,75.50
2022-12-12T10:59:04.434Z,75.19
2022-12-12T11:00:04.608Z,74.70
2022-12-12T11:01:04.464Z,74.91
2022-12-12T11:02:12.263Z,74.91
2022-12-12T11:03:05.481Z,75.22
2022-12-12T11:04:05.044Z,75.43
2022-12-12T11:05:04.385Z,75.32
2022-12-12T11:06:05.310Z,75.22
2022-12-12T11:07:04.324Z,75.32
2022-12-12T11:08:04.404Z,75.64
2022-12-12T11:09:04.355Z,75.32
2022-12-12T11:10:05.262Z,74.91
2022-12-12T11:11:04.291Z,74.60
2022-12-12T11:12:05.242Z,74.67
2022-12-12T11:13:04.279Z,74.67
2022-12-12T11:14:05.242Z,74.57
2022-12-12T11:15:04.257Z,74.88
2022-12-12T11:16:08.707Z,75.15
2022-12-12T11:17:05.284Z,74.95
2022-12-12T11:18:06.286Z,73.70
2022-12-12T11:19:04.304Z,72.83
2022-12-12T11:20:04.883Z,72.52
2022-12-12T11:21:04.168Z,71.55
2022-12-12T11:22:05.603Z,69.55
2022-12-12T11:23:04.154Z,68.59
2022-12-12T11:24:04.134Z,67.07
2022-12-12T11:25:04.145Z,66.00
2022-12-12T11:26:04.718Z,65.01
2022-12-12T11:27:04.105Z,64.25
2022-12-12T11:28:06.879Z,64.12
2022-12-12T11:29:05.531Z,64.43
2022-12-12T11:30:04.746Z,64.20
2022-12-12T11:31:04.056Z,63.99
2022-12-12T11:32:04.520Z,64.61
2022-12-12T11:33:04.044Z,64.81
2022-12-12T11:34:04.725Z,64.40
2022-12-12T11:35:04.081Z,64.06
2022-12-12T11:36:04.160Z,63.21
2022-12-12T11:37:03.996Z,62.35
2022-12-12T11:38:04.696Z,60.93
2022-12-12T11:39:03.988Z,58.70
2022-12-12T11:40:04.605Z,55.56
2022-12-12T11:41:03.976Z,52.72
2022-12-12T11:42:03.946Z,49.52
2022-12-12T11:43:03.926Z,46.76
2022-12-12T11:44:03.916Z,44.85
2022-12-12T11:45:03.906Z,43.32
2022-12-12T11:46:03.965Z,41.73
2022-12-12T11:47:03.869Z,39.94
2022-12-12T11:48:03.857Z,38.59
2022-12-12T11:49:03.853Z,37.52
2022-12-12T11:50:09.325Z,36.58
2022-12-12T11:51:04.872Z,35.85
2022-12-12T11:52:03.820Z,35.01
2022-12-12T11:53:04.168Z,34.17
2022-12-12T11:54:03.878Z,33.66
2022-12-12T11:55:03.899Z,33.14
2022-12-12T11:56:04.202Z,32.62
2022-12-12T11:57:03.786Z,32.53
2022-12-12T11:58:04.288Z,32.31
2022-12-12T11:59:04.127Z,32.20
2022-12-12T12:00:03.762Z,31.78
2022-12-12T12:01:03.930Z,31.46
2022-12-12T12:02:03.740Z,31.26
2022-12-12T12:03:05.838Z,30.95
2022-12-12T12:04:03.811Z,30.74
2022-12-12T12:05:04.061Z,30.33
2022-12-12T12:06:05.501Z,30.12
2022-12-12T12:07:04.874Z,30.12
2022-12-12T12:08:03.700Z,30.12
2022-12-12T12:09:03.934Z,29.93
2022-12-12T12:10:03.680Z,29.82
2022-12-12T12:11:04.234Z,29.72
2022-12-12T12:12:03.633Z,29.63
2022-12-12T12:13:03.943Z,29.74
2022-12-12T12:14:04.122Z,29.74
2022-12-12T12:15:04.080Z,29.63
2022-12-12T12:16:05.059Z,29.63
2022-12-12T12:17:04.631Z,29.33
2022-12-12T12:18:04.000Z,29.33
2022-12-12T12:19:05.960Z,29.54
2022-12-12T12:20:03.906Z,29.55
2022-12-12T12:21:04.083Z,29.86
2022-12-12T12:22:03.916Z,30.61
2022-12-12T12:23:03.955Z,31.26
2022-12-12T12:24:03.885Z,32.10
2022-12-12T12:25:04.160Z,33.20
2022-12-12T12:26:03.897Z,35.86
2022-12-12T12:27:03.935Z,38.42
2022-12-12T12:28:03.842Z,40.52
2022-12-12T12:29:03.735Z,41.94
2022-12-12T12:30:03.428Z,44.06
2022-12-12T12:31:04.170Z,45.78
2022-12-12T12:32:03.431Z,47.17
2022-12-12T12:33:03.411Z,48.98
2022-12-12T12:34:03.369Z,50.15
2022-12-12T12:35:03.399Z,51.43
2022-12-12T12:36:03.432Z,52.59
2022-12-12T12:37:04.032Z,53.33
2022-12-12T12:38:03.370Z,54.17
2022-12-12T12:39:03.350Z,54.61
2022-12-12T12:40:03.311Z,55.13
2022-12-12T12:41:03.312Z,54.02
2022-12-12T12:42:03.333Z,53.41
2022-12-12T12:43:03.290Z,53.85
2022-12-12T12:44:03.274Z,53.97
2022-12-12T12:45:03.252Z,50.42
2022-12-12T12:46:03.311Z,49.50
2022-12-12T12:47:03.243Z,49.55
2022-12-12T12:48:08.788Z,50.64
2022-12-12T12:49:04.234Z,51.82
2022-12-12T12:50:03.209Z,53.00
2022-12-12T12:51:03.767Z,54.07
2022-12-12T12:52:03.250Z,55.02